MXY207 KCAK-KCHS
Flight info
| Callsign | MXY207 |
|---|---|
| Flight time | 1h 17m |
| Altitude | 38000 |
| Route | CTW JPU BKW OBNEE OSPRI7 |
| Aircraft | E190/M-SDE3GILORVW/S |
Departure
| Time | 2026-04-24 21:38 |
|---|---|
| Airport | Akron Canton Regional Airport (KCAK) |
Arrival
| Time | 2026-04-24 22:55 |
|---|---|
| Airport | Charleston International Airport (KCHS) |
| Time | Latitude | Longitude | Altitude | Speed | Heading |
|---|---|---|---|---|---|
| 2026-04-24 21:12 | 40.91296 | -81.43615 | 1222 ft | 0 kts | 1° |
| 2026-04-24 21:30 | 40.91282 | -81.43615 | 1222 ft | 4 kts | 2° |
| 2026-04-24 21:30 | 40.91255 | -81.43616 | 1222 ft | 4 kts | 360° |
| 2026-04-24 21:31 | 40.91228 | -81.43615 | 1222 ft | 4 kts | 355° |
| 2026-04-24 21:31 | 40.91202 | -81.43611 | 1222 ft | 4 kts | 344° |
| 2026-04-24 21:31 | 40.91179 | -81.43598 | 1222 ft | 2 kts | 318° |
| 2026-04-24 21:31 | 40.91174 | -81.43593 | 1222 ft | 0 kts | 317° |
| 2026-04-24 21:33 | 40.91182 | -81.43603 | 1222 ft | 4 kts | 316° |
| 2026-04-24 21:34 | 40.91214 | -81.43644 | 1222 ft | 9 kts | 316° |
| 2026-04-24 21:34 | 40.91272 | -81.43715 | 1222 ft | 14 kts | 317° |
| 2026-04-24 21:34 | 40.91345 | -81.43805 | 1222 ft | 15 kts | 311° |
| 2026-04-24 21:34 | 40.91410 | -81.43913 | 1222 ft | 16 kts | 332° |
| 2026-04-24 21:35 | 40.91521 | -81.43938 | 1222 ft | 17 kts | 4° |
| 2026-04-24 21:35 | 40.91636 | -81.43884 | 1221 ft | 19 kts | 35° |
| 2026-04-24 21:35 | 40.91697 | -81.43757 | 1221 ft | 16 kts | 71° |
| 2026-04-24 21:35 | 40.91768 | -81.43639 | 1221 ft | 17 kts | 46° |
| 2026-04-24 21:36 | 40.91852 | -81.43548 | 1221 ft | 14 kts | 30° |
| 2026-04-24 21:36 | 40.91937 | -81.43491 | 1222 ft | 7 kts | 24° |
| 2026-04-24 21:36 | 40.91948 | -81.43486 | 1222 ft | 0 kts | 18° |
| 2026-04-24 21:37 | 40.91970 | -81.43484 | 1222 ft | 7 kts | 354° |
| 2026-04-24 21:37 | 40.92023 | -81.43537 | 1221 ft | 10 kts | 288° |
| 2026-04-24 21:37 | 40.92010 | -81.43575 | 1221 ft | 0 kts | 226° |
| 2026-04-24 21:37 | 40.91967 | -81.43635 | 1220 ft | 30 kts | 227° |
| 2026-04-24 21:38 | 40.91639 | -81.44097 | 1220 ft | 107 kts | 227° |
| 2026-04-24 21:38 | 40.90986 | -81.45038 | 1352 ft | 161 kts | 228° |
| 2026-04-24 21:38 | 40.90162 | -81.46219 | 2038 ft | 184 kts | 228° |
| 2026-04-24 21:38 | 40.89265 | -81.47440 | 3022 ft | 189 kts | 226° |
| 2026-04-24 21:39 | 40.88291 | -81.48735 | 3738 ft | 206 kts | 227° |
| 2026-04-24 21:39 | 40.87089 | -81.49857 | 4476 ft | 223 kts | 200° |
| 2026-04-24 21:39 | 40.85502 | -81.49979 | 5228 ft | 236 kts | 178° |
| 2026-04-24 21:39 | 40.83823 | -81.49796 | 6002 ft | 249 kts | 179° |
| 2026-04-24 21:40 | 40.81989 | -81.49599 | 6528 ft | 278 kts | 174° |
| 2026-04-24 21:40 | 40.80096 | -81.48856 | 7465 ft | 288 kts | 163° |
| 2026-04-24 21:40 | 40.78175 | -81.48100 | 8552 ft | 289 kts | 171° |
| 2026-04-24 21:40 | 40.76183 | -81.47764 | 9680 ft | 289 kts | 180° |
| 2026-04-24 21:41 | 40.74136 | -81.47692 | 10432 ft | 307 kts | 183° |
| 2026-04-24 21:41 | 40.71937 | -81.47695 | 11019 ft | 326 kts | 182° |
| 2026-04-24 21:41 | 40.69600 | -81.47692 | 11560 ft | 345 kts | 182° |
| 2026-04-24 21:41 | 40.67164 | -81.47704 | 12314 ft | 354 kts | 183° |
| 2026-04-24 21:42 | 40.64672 | -81.47737 | 13177 ft | 361 kts | 183° |
| 2026-04-24 21:42 | 40.62143 | -81.47769 | 14114 ft | 366 kts | 182° |
| 2026-04-24 21:42 | 40.59568 | -81.47799 | 15023 ft | 373 kts | 183° |
| 2026-04-24 21:42 | 40.56952 | -81.47826 | 15952 ft | 379 kts | 182° |
| 2026-04-24 21:43 | 40.54288 | -81.47848 | 16772 ft | 386 kts | 182° |
| 2026-04-24 21:43 | 40.51580 | -81.47861 | 17528 ft | 393 kts | 182° |
| 2026-04-24 21:43 | 40.48827 | -81.47867 | 18235 ft | 399 kts | 182° |
| 2026-04-24 21:43 | 40.46031 | -81.47870 | 18996 ft | 404 kts | 182° |
| 2026-04-24 21:44 | 40.43199 | -81.47871 | 19746 ft | 409 kts | 182° |
| 2026-04-24 21:44 | 40.40341 | -81.47867 | 20509 ft | 413 kts | 181° |
| 2026-04-24 21:44 | 40.37456 | -81.47856 | 21234 ft | 417 kts | 181° |
| 2026-04-24 21:44 | 40.34542 | -81.47840 | 21909 ft | 421 kts | 181° |
| 2026-04-24 21:45 | 40.31601 | -81.47823 | 22538 ft | 425 kts | 181° |
| 2026-04-24 21:45 | 40.28633 | -81.47798 | 23126 ft | 428 kts | 181° |
| 2026-04-24 21:45 | 40.25642 | -81.47762 | 23677 ft | 432 kts | 181° |
| 2026-04-24 21:45 | 40.22624 | -81.47690 | 24219 ft | 435 kts | 178° |
| 2026-04-24 21:46 | 40.19658 | -81.47346 | 25302 ft | 423 kts | 176° |
| 2026-04-24 21:46 | 40.16742 | -81.46951 | 26045 ft | 421 kts | 176° |
| 2026-04-24 21:46 | 40.13815 | -81.46560 | 26589 ft | 424 kts | 176° |
| 2026-04-24 21:46 | 40.10869 | -81.46173 | 27067 ft | 427 kts | 176° |
| 2026-04-24 21:47 | 40.07899 | -81.45790 | 27522 ft | 430 kts | 176° |
| 2026-04-24 21:47 | 40.04906 | -81.45402 | 27942 ft | 434 kts | 176° |
| 2026-04-24 21:47 | 40.01893 | -81.45009 | 28374 ft | 437 kts | 176° |
| 2026-04-24 21:47 | 39.98859 | -81.44615 | 28796 ft | 439 kts | 176° |
| 2026-04-24 21:48 | 39.95827 | -81.44225 | 29307 ft | 438 kts | 176° |
| 2026-04-24 21:48 | 39.92777 | -81.43833 | 29665 ft | 441 kts | 176° |
| 2026-04-24 21:48 | 39.89722 | -81.43442 | 30026 ft | 444 kts | 176° |
| 2026-04-24 21:48 | 39.86643 | -81.43048 | 30397 ft | 445 kts | 176° |
| 2026-04-24 21:49 | 39.83552 | -81.42652 | 30676 ft | 449 kts | 176° |
| 2026-04-24 21:49 | 39.80435 | -81.42249 | 31026 ft | 451 kts | 176° |
| 2026-04-24 21:49 | 39.77313 | -81.41848 | 31363 ft | 453 kts | 176° |
| 2026-04-24 21:49 | 39.74160 | -81.41445 | 31654 ft | 456 kts | 176° |
| 2026-04-24 21:50 | 39.71003 | -81.41039 | 32012 ft | 456 kts | 176° |
| 2026-04-24 21:50 | 39.67851 | -81.40638 | 32401 ft | 455 kts | 177° |
| 2026-04-24 21:50 | 39.64703 | -81.40236 | 32800 ft | 454 kts | 177° |
| 2026-04-24 21:50 | 39.61559 | -81.39837 | 33137 ft | 454 kts | 177° |
| 2026-04-24 21:51 | 39.58419 | -81.39439 | 33497 ft | 452 kts | 177° |
| 2026-04-24 21:51 | 39.55292 | -81.39041 | 33826 ft | 452 kts | 177° |
| 2026-04-24 21:51 | 39.52162 | -81.38644 | 34118 ft | 452 kts | 177° |
| 2026-04-24 21:51 | 39.49037 | -81.38247 | 34401 ft | 452 kts | 177° |
| 2026-04-24 21:52 | 39.45901 | -81.37848 | 34643 ft | 453 kts | 177° |
| 2026-04-24 21:52 | 39.42765 | -81.37445 | 34902 ft | 453 kts | 176° |
| 2026-04-24 21:52 | 39.39628 | -81.36974 | 35128 ft | 454 kts | 175° |
| 2026-04-24 21:52 | 39.36490 | -81.36474 | 35400 ft | 454 kts | 175° |
| 2026-04-24 21:53 | 39.33353 | -81.35980 | 35670 ft | 454 kts | 175° |
| 2026-04-24 21:53 | 39.30213 | -81.35493 | 35897 ft | 455 kts | 175° |
| 2026-04-24 21:53 | 39.27062 | -81.35006 | 36114 ft | 456 kts | 175° |
| 2026-04-24 21:53 | 39.23913 | -81.34521 | 36335 ft | 456 kts | 175° |
| 2026-04-24 21:54 | 39.20758 | -81.34039 | 36535 ft | 457 kts | 175° |
| 2026-04-24 21:54 | 39.17597 | -81.33557 | 36788 ft | 457 kts | 175° |
| 2026-04-24 21:54 | 39.14447 | -81.33074 | 37111 ft | 455 kts | 175° |
| 2026-04-24 21:54 | 39.11307 | -81.32593 | 37397 ft | 453 kts | 175° |
| 2026-04-24 21:55 | 39.08227 | -81.32122 | 37722 ft | 451 kts | 175° |
| 2026-04-24 21:55 | 39.05130 | -81.31649 | 37991 ft | 448 kts | 175° |
| 2026-04-24 21:55 | 39.01981 | -81.31171 | 37959 ft | 450 kts | 175° |
| 2026-04-24 21:56 | 38.95765 | -81.30230 | 37935 ft | 450 kts | 175° |
| 2026-04-24 21:56 | 38.89534 | -81.29280 | 37859 ft | 450 kts | 175° |
| 2026-04-24 21:57 | 38.83348 | -81.28341 | 37871 ft | 451 kts | 175° |
| 2026-04-24 21:57 | 38.77081 | -81.27395 | 37869 ft | 450 kts | 175° |
| 2026-04-24 21:58 | 38.70908 | -81.26467 | 37877 ft | 450 kts | 175° |
| 2026-04-24 21:58 | 38.64686 | -81.25529 | 37870 ft | 450 kts | 175° |
| 2026-04-24 21:59 | 38.58466 | -81.24589 | 37877 ft | 450 kts | 175° |
| 2026-04-24 21:59 | 38.52237 | -81.23654 | 37877 ft | 450 kts | 175° |
| 2026-04-24 22:00 | 38.46013 | -81.22722 | 37880 ft | 451 kts | 175° |
| 2026-04-24 22:00 | 38.39790 | -81.21792 | 37880 ft | 450 kts | 175° |
| 2026-04-24 22:01 | 38.33574 | -81.20863 | 37894 ft | 450 kts | 175° |
| 2026-04-24 22:01 | 38.27354 | -81.19935 | 37885 ft | 450 kts | 175° |
| 2026-04-24 22:02 | 38.21139 | -81.19013 | 37898 ft | 450 kts | 174° |
| 2026-04-24 22:02 | 38.14924 | -81.18085 | 37907 ft | 450 kts | 175° |
| 2026-04-24 22:03 | 38.08671 | -81.17161 | 37911 ft | 449 kts | 175° |
| 2026-04-24 22:03 | 38.02502 | -81.16245 | 37929 ft | 449 kts | 175° |
| 2026-04-24 22:04 | 37.96282 | -81.15325 | 37932 ft | 449 kts | 174° |
| 2026-04-24 22:04 | 37.90105 | -81.14414 | 37939 ft | 447 kts | 174° |
| 2026-04-24 22:05 | 37.83958 | -81.13510 | 37940 ft | 438 kts | 175° |
| 2026-04-24 22:05 | 37.77994 | -81.12634 | 37933 ft | 429 kts | 175° |
| 2026-04-24 22:06 | 37.72053 | -81.11652 | 37755 ft | 434 kts | 174° |
| 2026-04-24 22:06 | 37.69059 | -81.11132 | 37573 ft | 433 kts | 174° |
| 2026-04-24 22:06 | 37.66078 | -81.10624 | 37409 ft | 432 kts | 174° |
| 2026-04-24 22:06 | 37.63096 | -81.10119 | 37172 ft | 433 kts | 174° |
| 2026-04-24 22:07 | 37.60109 | -81.09614 | 36957 ft | 430 kts | 174° |
| 2026-04-24 22:07 | 37.54164 | -81.08611 | 37048 ft | 433 kts | 174° |
| 2026-04-24 22:07 | 37.51176 | -81.08104 | 36919 ft | 434 kts | 174° |
| 2026-04-24 22:08 | 37.48203 | -81.07604 | 37023 ft | 432 kts | 174° |
| 2026-04-24 22:08 | 37.42232 | -81.06608 | 37014 ft | 433 kts | 174° |
| 2026-04-24 22:09 | 37.36266 | -81.05607 | 36937 ft | 431 kts | 174° |
| 2026-04-24 22:09 | 37.30317 | -81.04613 | 36940 ft | 431 kts | 174° |
| 2026-04-24 22:10 | 37.24330 | -81.03614 | 36954 ft | 431 kts | 174° |
| 2026-04-24 22:10 | 37.18421 | -81.02628 | 36941 ft | 431 kts | 174° |
| 2026-04-24 22:11 | 37.12475 | -81.01638 | 36943 ft | 431 kts | 174° |
| 2026-04-24 22:11 | 37.06534 | -81.00649 | 36939 ft | 431 kts | 174° |
| 2026-04-24 22:12 | 37.00557 | -80.99657 | 36945 ft | 430 kts | 174° |
| 2026-04-24 22:12 | 36.94663 | -80.98680 | 36959 ft | 430 kts | 174° |
| 2026-04-24 22:13 | 36.88724 | -80.97697 | 36953 ft | 430 kts | 175° |
| 2026-04-24 22:13 | 36.82787 | -80.96716 | 36956 ft | 430 kts | 175° |
| 2026-04-24 22:14 | 36.76854 | -80.95734 | 36955 ft | 430 kts | 175° |
| 2026-04-24 22:14 | 36.70922 | -80.94757 | 36951 ft | 430 kts | 175° |
| 2026-04-24 22:15 | 36.65936 | -80.93942 | 36951 ft | 433 kts | 174° |
| 2026-04-24 22:15 | 36.59952 | -80.92960 | 36958 ft | 435 kts | 174° |
| 2026-04-24 22:16 | 36.53940 | -80.91973 | 36958 ft | 436 kts | 174° |
| 2026-04-24 22:16 | 36.47919 | -80.90986 | 36940 ft | 436 kts | 174° |
| 2026-04-24 22:17 | 36.41900 | -80.90002 | 36957 ft | 436 kts | 174° |
| 2026-04-24 22:17 | 36.35888 | -80.89021 | 36945 ft | 435 kts | 174° |
| 2026-04-24 22:18 | 36.29883 | -80.88043 | 36943 ft | 435 kts | 174° |
| 2026-04-24 22:18 | 36.23880 | -80.87064 | 36944 ft | 435 kts | 174° |
| 2026-04-24 22:19 | 36.17882 | -80.86092 | 36941 ft | 435 kts | 174° |
| 2026-04-24 22:19 | 36.11882 | -80.85120 | 36935 ft | 434 kts | 174° |
| 2026-04-24 22:19 | 36.08888 | -80.84636 | 36815 ft | 436 kts | 174° |
| 2026-04-24 22:20 | 36.05863 | -80.84148 | 36336 ft | 439 kts | 174° |
| 2026-04-24 22:20 | 36.02845 | -80.83662 | 35873 ft | 437 kts | 174° |
| 2026-04-24 22:20 | 35.99833 | -80.83171 | 35426 ft | 436 kts | 174° |
| 2026-04-24 22:20 | 35.96819 | -80.82680 | 34966 ft | 437 kts | 174° |
| 2026-04-24 22:21 | 35.93799 | -80.82191 | 34531 ft | 438 kts | 174° |
| 2026-04-24 22:21 | 35.90768 | -80.81699 | 34067 ft | 440 kts | 174° |
| 2026-04-24 22:21 | 35.87734 | -80.81207 | 33634 ft | 440 kts | 174° |
| 2026-04-24 22:21 | 35.84693 | -80.80715 | 33178 ft | 441 kts | 174° |
| 2026-04-24 22:22 | 35.81648 | -80.80222 | 32732 ft | 442 kts | 174° |
| 2026-04-24 22:22 | 35.78592 | -80.79731 | 32277 ft | 444 kts | 174° |
| 2026-04-24 22:22 | 35.75528 | -80.79238 | 31825 ft | 444 kts | 174° |
| 2026-04-24 22:22 | 35.72455 | -80.78739 | 31383 ft | 446 kts | 174° |
| 2026-04-24 22:23 | 35.69378 | -80.78241 | 30924 ft | 447 kts | 174° |
| 2026-04-24 22:23 | 35.66298 | -80.77742 | 30485 ft | 445 kts | 175° |
| 2026-04-24 22:23 | 35.63238 | -80.77246 | 30015 ft | 442 kts | 175° |
| 2026-04-24 22:23 | 35.60201 | -80.76754 | 29572 ft | 438 kts | 175° |
| 2026-04-24 22:24 | 35.57182 | -80.76265 | 29122 ft | 436 kts | 175° |
| 2026-04-24 22:24 | 35.54185 | -80.75779 | 28660 ft | 434 kts | 175° |
| 2026-04-24 22:24 | 35.51198 | -80.75299 | 28218 ft | 431 kts | 175° |
| 2026-04-24 22:24 | 35.48240 | -80.74825 | 28051 ft | 422 kts | 175° |
| 2026-04-24 22:25 | 35.45392 | -80.74371 | 29135 ft | 392 kts | 175° |
| 2026-04-24 22:25 | 35.42727 | -80.73955 | 30088 ft | 390 kts | 175° |
| 2026-04-24 22:25 | 35.39916 | -80.73517 | 28876 ft | 420 kts | 174° |
| 2026-04-24 22:25 | 35.37094 | -80.73056 | 29504 ft | 397 kts | 175° |
| 2026-04-24 22:26 | 35.34367 | -80.72613 | 30031 ft | 402 kts | 175° |
| 2026-04-24 22:26 | 35.31501 | -80.72165 | 29349 ft | 429 kts | 175° |
| 2026-04-24 22:26 | 35.28495 | -80.71720 | 28961 ft | 441 kts | 175° |
| 2026-04-24 22:26 | 35.25413 | -80.71270 | 28667 ft | 447 kts | 175° |
| 2026-04-24 22:27 | 35.22331 | -80.70802 | 28804 ft | 451 kts | 175° |
| 2026-04-24 22:27 | 35.19210 | -80.70303 | 28550 ft | 449 kts | 174° |
| 2026-04-24 22:27 | 35.16091 | -80.69812 | 28342 ft | 456 kts | 174° |
| 2026-04-24 22:27 | 35.12933 | -80.69312 | 27823 ft | 457 kts | 174° |
| 2026-04-24 22:28 | 35.09813 | -80.68769 | 28002 ft | 455 kts | 173° |
| 2026-04-24 22:28 | 35.06665 | -80.68201 | 27849 ft | 453 kts | 173° |
| 2026-04-24 22:28 | 35.03542 | -80.67617 | 28031 ft | 458 kts | 173° |
| 2026-04-24 22:28 | 35.00403 | -80.66998 | 27980 ft | 454 kts | 172° |
| 2026-04-24 22:29 | 34.94144 | -80.65621 | 27750 ft | 455 kts | 171° |
| 2026-04-24 22:29 | 34.91025 | -80.64945 | 27967 ft | 457 kts | 172° |
| 2026-04-24 22:29 | 34.87875 | -80.64343 | 27727 ft | 459 kts | 173° |
| 2026-04-24 22:30 | 34.84722 | -80.64032 | 27913 ft | 448 kts | 181° |
| 2026-04-24 22:30 | 34.81588 | -80.63971 | 27965 ft | 455 kts | 180° |
| 2026-04-24 22:30 | 34.78436 | -80.63722 | 27919 ft | 453 kts | 176° |
| 2026-04-24 22:30 | 34.75293 | -80.63334 | 27902 ft | 454 kts | 175° |
| 2026-04-24 22:31 | 34.72138 | -80.63155 | 27914 ft | 454 kts | 181° |
| 2026-04-24 22:31 | 34.68977 | -80.63087 | 27898 ft | 454 kts | 180° |
| 2026-04-24 22:31 | 34.65817 | -80.63002 | 27893 ft | 454 kts | 180° |
| 2026-04-24 22:31 | 34.62659 | -80.62916 | 27897 ft | 454 kts | 180° |
| 2026-04-24 22:32 | 34.59501 | -80.62832 | 27897 ft | 454 kts | 180° |
| 2026-04-24 22:32 | 34.56344 | -80.62748 | 27898 ft | 454 kts | 180° |
| 2026-04-24 22:32 | 34.53187 | -80.62663 | 27899 ft | 454 kts | 180° |
| 2026-04-24 22:32 | 34.50030 | -80.62632 | 27901 ft | 454 kts | 182° |
| 2026-04-24 22:33 | 34.46874 | -80.62677 | 27898 ft | 453 kts | 182° |
| 2026-04-24 22:33 | 34.43719 | -80.62718 | 27896 ft | 454 kts | 182° |
| 2026-04-24 22:33 | 34.40560 | -80.62755 | 27898 ft | 454 kts | 182° |
| 2026-04-24 22:33 | 34.37406 | -80.62788 | 27898 ft | 454 kts | 182° |
| 2026-04-24 22:34 | 34.34248 | -80.62820 | 27897 ft | 453 kts | 182° |
| 2026-04-24 22:34 | 34.31095 | -80.62849 | 27896 ft | 453 kts | 182° |
| 2026-04-24 22:34 | 34.27945 | -80.62878 | 27895 ft | 453 kts | 182° |
| 2026-04-24 22:34 | 34.24791 | -80.62907 | 27897 ft | 453 kts | 182° |
| 2026-04-24 22:35 | 34.21639 | -80.62935 | 27897 ft | 453 kts | 182° |
| 2026-04-24 22:35 | 34.18489 | -80.62963 | 27898 ft | 453 kts | 182° |
| 2026-04-24 22:35 | 34.15337 | -80.62992 | 27884 ft | 453 kts | 182° |
| 2026-04-24 22:35 | 34.12187 | -80.63016 | 27890 ft | 453 kts | 182° |
| 2026-04-24 22:36 | 34.09032 | -80.63043 | 27888 ft | 453 kts | 182° |
| 2026-04-24 22:36 | 34.05881 | -80.63072 | 27885 ft | 453 kts | 182° |
| 2026-04-24 22:36 | 34.02728 | -80.63099 | 27867 ft | 453 kts | 182° |
| 2026-04-24 22:36 | 33.99569 | -80.63128 | 27469 ft | 452 kts | 182° |
| 2026-04-24 22:37 | 33.96452 | -80.63269 | 27102 ft | 447 kts | 187° |
| 2026-04-24 22:37 | 33.93374 | -80.63775 | 26440 ft | 444 kts | 191° |
| 2026-04-24 22:37 | 33.90352 | -80.64377 | 25824 ft | 438 kts | 191° |
| 2026-04-24 22:37 | 33.87363 | -80.64952 | 25245 ft | 432 kts | 191° |
| 2026-04-24 22:38 | 33.84407 | -80.65507 | 24678 ft | 428 kts | 191° |
| 2026-04-24 22:38 | 33.81473 | -80.66054 | 24086 ft | 424 kts | 191° |
| 2026-04-24 22:38 | 33.78573 | -80.66592 | 23531 ft | 420 kts | 191° |
| 2026-04-24 22:38 | 33.75692 | -80.67122 | 22989 ft | 417 kts | 191° |
| 2026-04-24 22:39 | 33.72838 | -80.67648 | 22452 ft | 413 kts | 191° |
| 2026-04-24 22:39 | 33.70003 | -80.68170 | 21872 ft | 411 kts | 191° |
| 2026-04-24 22:39 | 33.67201 | -80.68685 | 21362 ft | 406 kts | 191° |
| 2026-04-24 22:39 | 33.64421 | -80.69194 | 20824 ft | 402 kts | 191° |
| 2026-04-24 22:40 | 33.61664 | -80.69698 | 20293 ft | 399 kts | 191° |
| 2026-04-24 22:40 | 33.58929 | -80.70199 | 19767 ft | 396 kts | 191° |
| 2026-04-24 22:40 | 33.56218 | -80.70693 | 19253 ft | 392 kts | 191° |
| 2026-04-24 22:40 | 33.53528 | -80.71183 | 18732 ft | 389 kts | 191° |
| 2026-04-24 22:41 | 33.50864 | -80.71666 | 18228 ft | 386 kts | 191° |
| 2026-04-24 22:41 | 33.48217 | -80.72149 | 17719 ft | 383 kts | 191° |
| 2026-04-24 22:41 | 33.45595 | -80.72624 | 17208 ft | 379 kts | 191° |
| 2026-04-24 22:41 | 33.42998 | -80.73090 | 16708 ft | 376 kts | 191° |
| 2026-04-24 22:42 | 33.40423 | -80.73556 | 16216 ft | 372 kts | 191° |
| 2026-04-24 22:42 | 33.37868 | -80.74023 | 15688 ft | 370 kts | 191° |
| 2026-04-24 22:42 | 33.35333 | -80.74363 | 15316 ft | 365 kts | 182° |
| 2026-04-24 22:42 | 33.32831 | -80.73809 | 14795 ft | 370 kts | 159° |
| 2026-04-24 22:43 | 33.30599 | -80.72382 | 14344 ft | 359 kts | 151° |
| 2026-04-24 22:43 | 33.28461 | -80.70906 | 13833 ft | 350 kts | 152° |
| 2026-04-24 22:43 | 33.26376 | -80.69475 | 13382 ft | 342 kts | 152° |
| 2026-04-24 22:43 | 33.24346 | -80.68059 | 12925 ft | 334 kts | 148° |
| 2026-04-24 22:44 | 33.22731 | -80.66125 | 12489 ft | 330 kts | 122° |
| 2026-04-24 22:44 | 33.21779 | -80.63674 | 12108 ft | 323 kts | 111° |
| 2026-04-24 22:44 | 33.21045 | -80.61156 | 11649 ft | 319 kts | 110° |
| 2026-04-24 22:44 | 33.20297 | -80.58697 | 11235 ft | 313 kts | 111° |
| 2026-04-24 22:45 | 33.19523 | -80.56287 | 10817 ft | 308 kts | 112° |
| 2026-04-24 22:45 | 33.18739 | -80.53923 | 10404 ft | 305 kts | 113° |
| 2026-04-24 22:45 | 33.17951 | -80.51590 | 10012 ft | 301 kts | 113° |
| 2026-04-24 22:45 | 33.17175 | -80.49277 | 9617 ft | 300 kts | 112° |
| 2026-04-24 22:46 | 33.16400 | -80.46971 | 9223 ft | 299 kts | 113° |
| 2026-04-24 22:46 | 33.15618 | -80.44669 | 8818 ft | 299 kts | 113° |
| 2026-04-24 22:46 | 33.14836 | -80.42373 | 8434 ft | 298 kts | 113° |
| 2026-04-24 22:46 | 33.14061 | -80.40093 | 8034 ft | 295 kts | 113° |
| 2026-04-24 22:47 | 33.13590 | -80.37769 | 7623 ft | 293 kts | 96° |
| 2026-04-24 22:47 | 33.13520 | -80.35361 | 7257 ft | 289 kts | 90° |
| 2026-04-24 22:47 | 33.13539 | -80.32973 | 6859 ft | 286 kts | 90° |
| 2026-04-24 22:47 | 33.13542 | -80.30615 | 6489 ft | 283 kts | 91° |
| 2026-04-24 22:48 | 33.13524 | -80.28284 | 6114 ft | 279 kts | 91° |
| 2026-04-24 22:48 | 33.13506 | -80.25944 | 5738 ft | 277 kts | 91° |
| 2026-04-24 22:48 | 33.13467 | -80.23687 | 5383 ft | 274 kts | 97° |
| 2026-04-24 22:48 | 33.12835 | -80.21612 | 5031 ft | 264 kts | 129° |
| 2026-04-24 22:49 | 33.11532 | -80.20194 | 4763 ft | 245 kts | 147° |
| 2026-04-24 22:49 | 33.10114 | -80.19160 | 4408 ft | 234 kts | 153° |
| 2026-04-24 22:49 | 33.08748 | -80.18178 | 4081 ft | 225 kts | 149° |
| 2026-04-24 22:49 | 33.07482 | -80.17159 | 3780 ft | 213 kts | 149° |
| 2026-04-24 22:50 | 33.06301 | -80.16255 | 3522 ft | 190 kts | 151° |
| 2026-04-24 22:50 | 33.05238 | -80.15460 | 3270 ft | 171 kts | 150° |
| 2026-04-24 22:50 | 33.04286 | -80.14724 | 3041 ft | 156 kts | 151° |
| 2026-04-24 22:50 | 33.03405 | -80.14050 | 2831 ft | 146 kts | 150° |
| 2026-04-24 22:51 | 33.02544 | -80.13397 | 2651 ft | 147 kts | 150° |
| 2026-04-24 22:51 | 33.01695 | -80.12748 | 2452 ft | 143 kts | 150° |
| 2026-04-24 22:51 | 33.00866 | -80.12111 | 2272 ft | 141 kts | 150° |
| 2026-04-24 22:51 | 33.00045 | -80.11486 | 2083 ft | 139 kts | 151° |
| 2026-04-24 22:52 | 32.99229 | -80.10866 | 1894 ft | 139 kts | 150° |
| 2026-04-24 22:52 | 32.98420 | -80.10247 | 1707 ft | 137 kts | 150° |
| 2026-04-24 22:52 | 32.97618 | -80.09634 | 1533 ft | 136 kts | 151° |
| 2026-04-24 22:52 | 32.96854 | -80.09049 | 1335 ft | 127 kts | 150° |
| 2026-04-24 22:53 | 32.96096 | -80.08476 | 1187 ft | 131 kts | 150° |
| 2026-04-24 22:53 | 32.95337 | -80.07889 | 1003 ft | 129 kts | 150° |
| 2026-04-24 22:53 | 32.94586 | -80.07297 | 780 ft | 130 kts | 149° |
| 2026-04-24 22:53 | 32.93835 | -80.06713 | 620 ft | 129 kts | 150° |
| 2026-04-24 22:54 | 32.93089 | -80.06149 | 450 ft | 126 kts | 150° |
| 2026-04-24 22:54 | 32.92345 | -80.05597 | 294 ft | 125 kts | 149° |
| 2026-04-24 22:54 | 32.91618 | -80.05045 | 136 ft | 123 kts | 150° |
| 2026-04-24 22:54 | 32.91139 | -80.04685 | 44 ft | 120 kts | 149° |
| 2026-04-24 22:55 | 32.90513 | -80.04211 | 38 ft | 89 kts | 147° |
| 2026-04-24 22:55 | 32.90085 | -80.03890 | 40 ft | 59 kts | 149° |
| 2026-04-24 22:55 | 32.89803 | -80.03673 | 37 ft | 43 kts | 146° |
| 2026-04-24 22:55 | 32.89548 | -80.03587 | 38 ft | 37 kts | 181° |
| 2026-04-24 22:56 | 32.89300 | -80.03590 | 40 ft | 36 kts | 181° |
| 2026-04-24 22:56 | 32.89051 | -80.03599 | 40 ft | 36 kts | 182° |
| 2026-04-24 22:56 | 32.88827 | -80.03632 | 40 ft | 25 kts | 188° |
| 2026-04-24 22:56 | 32.88689 | -80.03641 | 40 ft | 14 kts | 159° |
| 2026-04-24 22:57 | 32.88642 | -80.03586 | 38 ft | 7 kts | 161° |
| 2026-04-24 22:57 | 32.88600 | -80.03583 | 38 ft | 1 kts | 177° |
| 2026-04-24 22:57 | 32.88600 | -80.03582 | 40 ft | 0 kts | 177° |